Time;durP1;ratioP1;P1;durP2;ratioP2;P2;SDS_P1;SDS_P2;PMS_P1;PMS_P2;Temp;Humidity;BMP_temperature;BMP_pressure;BME280_temperature;BME280_humidity;BME280_pressure;Samples;Min_cycle;Max_cycle;Signal;HPM_P1;HPM_P2
2023/07/15 00:01:02;;;;;;;4.63;4.20;;;17.60;98.10;;;;;;5043016;28;20507;-61
2023/07/15 00:03:28;;;;;;;5.50;4.40;;;17.50;98.20;;;;;;5041843;28;20992;-61
2023/07/15 00:05:54;;;;;;;5.07;4.57;;;17.50;98.60;;;;;;5048026;28;20434;-61
2023/07/15 00:08:20;;;;;;;4.73;4.23;;;17.40;98.90;;;;;;5041957;28;20168;-61
2023/07/15 00:10:46;;;;;;;5.57;4.70;;;17.40;99.30;;;;;;5036178;28;20195;-61
2023/07/15 00:13:17;;;;;;;7.97;4.50;;;17.40;99.70;;;;;;5039980;28;20464;-61
2023/07/15 00:15:45;;;;;;;7.50;4.40;;;17.30;99.90;;;;;;5042802;28;20232;-60
2023/07/15 00:18:12;;;;;;;7.10;4.40;;;17.30;99.90;;;;;;5040106;28;20534;-62
2023/07/15 00:20:38;;;;;;;5.50;4.90;;;17.30;99.90;;;;;;5039830;28;20441;-61
2023/07/15 00:23:21;;;;;;;6.33;5.23;;;17.30;99.90;;;;;;5043109;28;20450;-61
2023/07/15 00:25:50;;;;;;;6.70;4.77;;;17.20;99.90;;;;;;5040672;28;20192;-61
2023/07/15 00:28:16;;;;;;;6.03;4.67;;;17.20;99.90;;;;;;5037042;28;20930;-61
2023/07/15 00:30:43;;;;;;;7.67;5.20;;;17.10;99.90;;;;;;5040071;28;20436;-60
2023/07/15 00:33:13;;;;;;;5.67;4.70;;;17.10;99.90;;;;;;5041527;28;20433;-60
2023/07/15 00:35:39;;;;;;;4.73;4.33;;;17.10;99.90;;;;;;5046754;28;21032;-60
2023/07/15 00:38:04;;;;;;;6.90;5.03;;;17.10;99.90;;;;;;5043612;28;20525;-61
2023/07/15 00:40:37;;;;;;;6.87;4.50;;;17.00;99.90;;;;;;5039534;28;20176;-61
2023/07/15 00:43:40;;;;;;;8.93;5.63;;;17.00;99.90;;;;;;5039711;28;20204;-61
2023/07/15 00:46:46;;;;;;;6.20;4.80;;;16.90;99.90;;;;;;5035773;28;20473;-60
2023/07/15 00:49:14;;;;;;;6.50;5.40;;;16.90;99.90;;;;;;5034184;28;20449;-61
2023/07/15 00:51:47;;;;;;;5.77;4.83;;;16.90;99.90;;;;;;5041774;28;20437;-62
2023/07/15 00:54:13;;;;;;;6.83;4.97;;;16.90;99.90;;;;;;5037960;28;20452;-61
2023/07/15 00:56:41;;;;;;;9.30;5.57;;;16.80;99.90;;;;;;5042191;28;20441;-60
2023/07/15 00:59:09;;;;;;;8.03;5.00;;;16.80;99.90;;;;;;5042654;28;20898;-60
2023/07/15 01:01:36;;;;;;;6.73;5.27;;;16.80;99.90;;;;;;5038115;28;20445;-61
2023/07/15 01:04:02;;;;;;;6.87;5.10;;;16.80;99.90;;;;;;5037476;28;20481;-62
2023/07/15 01:06:28;;;;;;;8.43;5.37;;;16.70;99.90;;;;;;5040542;28;20505;-61
2023/07/15 01:08:54;;;;;;;7.67;4.43;;;16.70;99.90;;;;;;5034345;28;20824;-61
2023/07/15 01:11:20;;;;;;;5.90;5.10;;;16.70;99.90;;;;;;5044697;28;20508;-61
2023/07/15 01:13:45;;;;;;;8.00;5.20;;;16.70;99.90;;;;;;5036589;28;20254;-61
2023/07/15 01:16:11;;;;;;;6.03;4.80;;;16.70;99.90;;;;;;5026286;28;20568;-61
2023/07/15 01:18:36;;;;;;;9.53;5.10;;;16.60;99.90;;;;;;5036436;28;20184;-60
2023/07/15 01:21:03;;;;;;;6.10;5.00;;;16.60;99.90;;;;;;5034678;28;20288;-60
2023/07/15 01:23:29;;;;;;;8.63;5.37;;;16.60;99.90;;;;;;5036354;28;20309;-61
2023/07/15 01:25:56;;;;;;;8.03;5.40;;;16.60;99.90;;;;;;5036498;28;20451;-61
2023/07/15 01:28:23;;;;;;;7.43;4.80;;;16.60;99.90;;;;;;5038965;28;20776;-60
2023/07/15 01:30:48;;;;;;;6.60;5.07;;;16.50;99.90;;;;;;5044019;28;20454;-60
2023/07/15 01:33:15;;;;;;;9.47;5.50;;;16.50;99.90;;;;;;5043896;28;21138;-61
2023/07/15 01:35:45;;;;;;;6.00;5.17;;;16.40;99.90;;;;;;5034583;28;20590;-62
2023/07/15 01:38:11;;;;;;;7.03;5.40;;;16.40;99.90;;;;;;5035074;28;20477;-61
2023/07/15 01:40:36;;;;;;;6.20;5.53;;;16.40;99.90;;;;;;5037285;28;20576;-61
2023/07/15 01:43:04;;;;;;;7.33;5.80;;;16.30;99.90;;;;;;5048914;28;20187;-61
2023/07/15 01:45:30;;;;;;;7.10;5.10;;;16.30;99.90;;;;;;5040837;28;20199;-61
2023/07/15 01:47:56;;;;;;;5.43;4.93;;;16.30;99.90;;;;;;5029655;28;20427;-62
2023/07/15 01:50:21;;;;;;;7.20;5.20;;;16.30;99.90;;;;;;5036456;28;20436;-61
2023/07/15 01:52:47;;;;;;;7.03;4.63;;;16.30;99.90;;;;;;5037145;28;20254;-60
2023/07/15 01:55:12;;;;;;;6.73;5.97;;;16.30;99.90;;;;;;5047915;28;20193;-61
2023/07/15 01:57:38;;;;;;;11.13;5.80;;;16.20;99.90;;;;;;5039850;28;20179;-61
2023/07/15 02:00:08;;;;;;;6.87;5.57;;;16.20;99.90;;;;;;5041374;28;20175;-61
2023/07/15 02:02:34;;;;;;;9.13;5.23;;;16.20;99.90;;;;;;5040535;28;20815;-60
2023/07/15 02:05:00;;;;;;;7.27;5.70;;;16.20;99.90;;;;;;5037889;28;20465;-60
2023/07/15 02:07:25;;;;;;;6.77;5.40;;;16.20;99.90;;;;;;5042580;28;20192;-60
2023/07/15 02:09:51;;;;;;;6.47;5.67;;;16.20;99.90;;;;;;5036833;28;20175;-60
2023/07/15 02:12:16;;;;;;;12.03;6.10;;;16.20;99.90;;;;;;5046817;28;20305;-60
2023/07/15 02:14:43;;;;;;;5.60;5.07;;;16.20;99.90;;;;;;5041562;28;20195;-60
2023/07/15 02:17:08;;;;;;;6.50;5.50;;;16.20;99.90;;;;;;5045359;28;20242;-60
2023/07/15 02:19:34;;;;;;;6.57;5.03;;;16.20;99.90;;;;;;5039178;28;20433;-60
2023/07/15 02:22:00;;;;;;;7.17;5.03;;;16.10;99.90;;;;;;5048269;28;20179;-61
2023/07/15 02:24:26;;;;;;;6.87;4.70;;;16.10;99.90;;;;;;5043651;28;20210;-61
2023/07/15 02:26:51;;;;;;;6.50;5.27;;;16.10;99.90;;;;;;5042588;28;20175;-61
2023/07/15 02:29:17;;;;;;;6.20;5.33;;;16.10;99.90;;;;;;5044019;28;20182;-61
2023/07/15 02:31:43;;;;;;;6.63;5.33;;;16.10;99.90;;;;;;5043494;28;20649;-61
2023/07/15 02:34:09;;;;;;;8.23;4.90;;;16.10;99.90;;;;;;5044760;28;20457;-61
2023/07/15 02:36:35;;;;;;;7.70;5.23;;;16.00;99.90;;;;;;5040608;28;20191;-61
2023/07/15 02:39:04;;;;;;;9.00;5.90;;;16.00;99.90;;;;;;5040960;28;20197;-60
2023/07/15 02:41:31;;;;;;;6.97;5.30;;;16.00;99.90;;;;;;5048121;28;20434;-61
2023/07/15 02:43:56;;;;;;;6.83;5.07;;;16.00;99.90;;;;;;5042882;28;20500;-60
2023/07/15 02:46:22;;;;;;;5.97;4.83;;;15.90;99.90;;;;;;5047812;28;20939;-61
2023/07/15 02:48:48;;;;;;;11.00;5.90;;;15.90;99.90;;;;;;5040926;28;20214;-61
2023/07/15 02:51:13;;;;;;;8.67;5.90;;;15.90;99.90;;;;;;5039035;28;20172;-61
2023/07/15 02:53:39;;;;;;;9.07;5.77;;;15.90;99.90;;;;;;5043000;28;20182;-61
2023/07/15 02:56:05;;;;;;;8.33;5.17;;;15.80;99.90;;;;;;5046557;28;20566;-61
2023/07/15 02:58:31;;;;;;;10.70;5.40;;;15.80;99.90;;;;;;5041862;28;20429;-61
2023/07/15 03:00:57;;;;;;;6.70;4.80;;;15.80;99.90;;;;;;5049372;28;20932;-61
2023/07/15 03:03:23;;;;;;;7.60;6.07;;;15.80;99.90;;;;;;5044785;28;20195;-61
2023/07/15 03:05:49;;;;;;;8.07;6.07;;;15.80;99.90;;;;;;5046163;28;20188;-61
2023/07/15 03:08:15;;;;;;;7.90;5.77;;;15.80;99.90;;;;;;5039330;28;20187;-61
2023/07/15 03:10:45;;;;;;;9.97;5.43;;;15.70;99.90;;;;;;5043718;28;20457;-61
2023/07/15 03:13:11;;;;;;;7.50;5.63;;;15.70;99.90;;;;;;5045430;28;20235;-61
2023/07/15 03:15:39;;;;;;;7.20;5.60;;;15.70;99.90;;;;;;5042131;28;20447;-61
2023/07/15 03:18:04;;;;;;;7.20;5.93;;;15.70;99.90;;;;;;5034977;28;20864;-61
2023/07/15 03:20:30;;;;;;;8.10;5.63;;;15.60;99.90;;;;;;5041172;28;20434;-61
2023/07/15 03:22:56;;;;;;;7.60;5.07;;;15.70;99.90;;;;;;5041656;28;20199;-60
2023/07/15 03:25:22;;;;;;;9.13;5.47;;;15.60;99.90;;;;;;5041196;28;20195;-59
2023/07/15 03:27:48;;;;;;;8.80;5.97;;;15.60;99.90;;;;;;5035226;28;20183;-60
2023/07/15 03:30:14;;;;;;;13.17;5.90;;;15.60;99.90;;;;;;5041253;28;20254;-60
2023/07/15 03:32:40;;;;;;;7.00;5.70;;;15.60;99.90;;;;;;5042670;28;20526;-59
2023/07/15 03:35:08;;;;;;;7.40;5.27;;;15.60;99.90;;;;;;5039980;28;20191;-60
2023/07/15 03:37:35;;;;;;;7.43;5.60;;;15.60;99.90;;;;;;5039882;28;20442;-59
2023/07/15 03:40:05;;;;;;;10.73;5.73;;;15.50;99.90;;;;;;5042941;28;20429;-60
2023/07/15 03:42:31;;;;;;;6.90;5.40;;;15.50;99.90;;;;;;5035302;28;20490;-60
2023/07/15 03:44:56;;;;;;;9.73;5.30;;;15.50;99.90;;;;;;5038677;28;20500;-60
2023/07/15 03:47:22;;;;;;;7.83;5.30;;;15.40;99.90;;;;;;5046156;28;20171;-60
2023/07/15 03:49:48;;;;;;;13.67;6.67;;;15.40;99.90;;;;;;5045833;28;20763;-60
2023/07/15 03:52:14;;;;;;;8.87;5.30;;;15.40;99.90;;;;;;5044801;28;20171;-59
2023/07/15 03:54:41;;;;;;;7.40;5.70;;;15.40;99.90;;;;;;5040082;28;20277;-60
2023/07/15 03:57:06;;;;;;;7.33;6.50;;;15.40;99.90;;;;;;5036847;28;20172;-61
2023/07/15 03:59:32;;;;;;;10.10;5.97;;;15.40;99.90;;;;;;5045153;28;20782;-61
2023/07/15 04:01:58;;;;;;;7.33;5.40;;;15.40;99.90;;;;;;5035633;28;20188;-62
2023/07/15 04:04:23;;;;;;;10.07;6.10;;;15.40;99.90;;;;;;5043538;28;20321;-61
2023/07/15 04:06:49;;;;;;;9.20;6.07;;;15.30;99.90;;;;;;5042646;28;20190;-61
2023/07/15 04:09:16;;;;;;;6.87;5.43;;;15.30;99.90;;;;;;5042492;28;20203;-60
2023/07/15 04:11:45;;;;;;;8.80;5.30;;;15.40;99.90;;;;;;5037224;28;20610;-61
2023/07/15 04:14:12;;;;;;;7.40;5.90;;;15.40;99.90;;;;;;5043265;28;20469;-62
2023/07/15 04:16:38;;;;;;;7.10;5.90;;;15.40;99.90;;;;;;5036325;28;20471;-61
2023/07/15 04:19:03;;;;;;;7.47;5.13;;;15.40;99.90;;;;;;5046154;28;21103;-61
2023/07/15 04:21:29;;;;;;;13.60;5.67;;;15.50;99.90;;;;;;5040950;28;20433;-62
2023/07/15 04:23:55;;;;;;;9.10;6.40;;;15.50;99.90;;;;;;5038909;28;20849;-62
2023/07/15 04:26:24;;;;;;;11.30;5.60;;;15.50;99.90;;;;;;5040478;28;20251;-61
2023/07/15 04:28:51;;;;;;;7.00;6.10;;;15.50;99.90;;;;;;5039311;28;20175;-62
2023/07/15 04:31:18;;;;;;;8.27;5.50;;;15.60;99.90;;;;;;5038978;28;20453;-61
2023/07/15 04:33:45;;;;;;;5.90;5.27;;;15.60;99.90;;;;;;5041316;28;20487;-63
2023/07/15 04:36:11;;;;;;;6.00;5.03;;;15.60;99.90;;;;;;5032902;28;20430;-69
2023/07/15 04:38:36;;;;;;;7.53;5.70;;;15.70;99.90;;;;;;5042824;28;20460;-62
2023/07/15 04:41:02;;;;;;;14.50;5.50;;;15.70;99.90;;;;;;5036658;28;20202;-62
2023/07/15 04:43:27;;;;;;;8.43;5.50;;;15.70;99.90;;;;;;5043724;28;20202;-61
2023/07/15 04:45:53;;;;;;;7.63;5.50;;;15.80;99.90;;;;;;5036275;28;20199;-62
2023/07/15 04:48:19;;;;;;;5.93;5.27;;;15.80;99.90;;;;;;5043797;28;20322;-62
2023/07/15 04:50:45;;;;;;;9.67;5.83;;;15.80;99.90;;;;;;5040143;28;20175;-62
2023/07/15 04:53:11;;;;;;;12.73;5.90;;;15.90;99.90;;;;;;5042707;28;21028;-62
2023/07/15 04:55:37;;;;;;;15.77;5.67;;;15.90;99.90;;;;;;5039384;28;20484;-62
2023/07/15 04:58:03;;;;;;;7.93;5.53;;;16.00;99.90;;;;;;5031921;28;20179;-62
2023/07/15 05:00:29;;;;;;;10.23;6.77;;;16.00;99.90;;;;;;5034895;28;20244;-62
2023/07/15 05:02:55;;;;;;;8.07;6.27;;;16.00;99.90;;;;;;5037275;28;20947;-62
2023/07/15 05:05:20;;;;;;;8.30;5.83;;;16.10;99.90;;;;;;5041835;28;20218;-61
2023/07/15 05:07:49;;;;;;;8.43;6.03;;;16.10;99.90;;;;;;5041942;28;20906;-62
2023/07/15 05:10:15;;;;;;;10.10;5.83;;;16.20;99.90;;;;;;5037663;28;20652;-61
2023/07/15 05:12:41;;;;;;;11.23;6.20;;;16.20;99.90;;;;;;5032830;28;20460;-60
2023/07/15 05:15:07;;;;;;;7.10;5.30;;;16.30;99.90;;;;;;5038574;28;20666;-59
2023/07/15 05:17:33;;;;;;;13.53;6.17;;;16.30;99.90;;;;;;5039221;28;20239;-60
2023/07/15 05:19:59;;;;;;;9.43;5.30;;;16.40;99.90;;;;;;5036472;28;21097;-60
2023/07/15 05:22:26;;;;;;;7.00;5.73;;;16.50;99.90;;;;;;5029248;28;20179;-59
2023/07/15 05:24:51;;;;;;;6.77;5.53;;;16.50;99.90;;;;;;5046829;28;20206;-62
2023/07/15 05:27:17;;;;;;;8.27;5.70;;;16.60;99.90;;;;;;5043349;28;20583;-62
2023/07/15 05:29:44;;;;;;;12.10;5.57;;;16.70;99.90;;;;;;5040552;28;20171;-62
2023/07/15 05:32:10;;;;;;;13.23;6.40;;;16.80;99.90;;;;;;5037636;28;20171;-61
2023/07/15 05:34:35;;;;;;;8.07;5.00;;;16.90;99.90;;;;;;5037249;28;20816;-61
2023/07/15 05:37:01;;;;;;;7.40;6.07;;;17.00;99.90;;;;;;5042608;28;20174;-62
2023/07/15 05:39:28;;;;;;;9.00;6.47;;;17.00;99.90;;;;;;5036587;28;20785;-61
2023/07/15 05:41:53;;;;;;;12.60;6.37;;;17.10;99.90;;;;;;5036586;28;20191;-61
2023/07/15 05:44:19;;;;;;;7.40;5.57;;;17.20;99.90;;;;;;5039572;28;20471;-61
2023/07/15 05:46:44;;;;;;;11.50;5.63;;;17.30;99.90;;;;;;5035766;28;20185;-61
2023/07/15 05:49:10;;;;;;;10.80;5.40;;;17.30;99.90;;;;;;5043844;28;20235;-62
2023/07/15 05:51:36;;;;;;;6.97;5.00;;;17.40;99.90;;;;;;5037154;28;20233;-61
2023/07/15 05:54:01;;;;;;;8.70;5.43;;;17.50;99.90;;;;;;5039126;28;20210;-61
2023/07/15 05:56:27;;;;;;;7.50;5.17;;;17.60;99.90;;;;;;5040335;28;20172;-62
2023/07/15 05:58:53;;;;;;;8.43;5.53;;;17.70;99.90;;;;;;5039442;28;20191;-62
2023/07/15 06:01:18;;;;;;;8.40;5.93;;;17.80;99.90;;;;;;5036735;28;20553;-61
2023/07/15 06:03:44;;;;;;;8.00;5.20;;;17.90;99.90;;;;;;5034861;28;20639;-61
2023/07/15 06:06:09;;;;;;;15.63;5.80;;;17.90;99.90;;;;;;5030039;28;20172;-63
2023/07/15 06:08:35;;;;;;;6.43;5.20;;;18.00;99.90;;;;;;5036523;28;20176;-61
2023/07/15 06:11:00;;;;;;;6.60;5.57;;;18.10;99.90;;;;;;5033631;28;20205;-61
2023/07/15 06:13:26;;;;;;;4.90;4.50;;;18.10;99.90;;;;;;5033751;28;20794;-61
2023/07/15 06:15:53;;;;;;;6.83;5.13;;;18.20;99.90;;;;;;5030437;28;20206;-62
2023/07/15 06:18:19;;;;;;;7.40;5.23;;;18.30;99.90;;;;;;5043182;28;20595;-60
2023/07/15 06:20:47;;;;;;;6.90;4.60;;;18.40;99.90;;;;;;5031124;28;20422;-61
2023/07/15 06:23:13;;;;;;;7.03;5.43;;;18.50;99.90;;;;;;5040112;28;20213;-62
2023/07/15 06:25:39;;;;;;;9.80;5.87;;;18.60;99.90;;;;;;5039776;28;20461;-61
2023/07/15 06:28:05;;;;;;;6.90;5.90;;;18.70;99.90;;;;;;5038073;28;20425;-60
2023/07/15 06:30:31;;;;;;;7.50;5.23;;;18.80;99.90;;;;;;5043934;28;20460;-63
2023/07/15 06:32:57;;;;;;;8.87;6.50;;;18.90;99.90;;;;;;5044330;28;20189;-61
2023/07/15 06:35:23;;;;;;;11.10;6.67;;;19.00;99.90;;;;;;5046029;28;20430;-62
2023/07/15 06:37:49;;;;;;;8.50;6.00;;;19.20;99.90;;;;;;5043489;28;20186;-62
2023/07/15 06:40:18;;;;;;;8.60;6.47;;;19.20;99.90;;;;;;5039798;28;20701;-62
2023/07/15 06:42:45;;;;;;;10.57;6.77;;;19.40;99.90;;;;;;5045345;28;20465;-61
2023/07/15 06:45:11;;;;;;;9.37;7.20;;;19.50;99.90;;;;;;5047444;28;20456;-63
2023/07/15 06:47:38;;;;;;;10.40;6.87;;;19.60;99.90;;;;;;5045063;28;20477;-62
2023/07/15 06:50:05;;;;;;;9.37;7.50;;;19.70;99.90;;;;;;5042470;28;20499;-60
2023/07/15 06:52:31;;;;;;;9.83;7.00;;;19.80;99.90;;;;;;5041989;28;20217;-62
2023/07/15 06:54:56;;;;;;;10.47;7.70;;;20.00;99.90;;;;;;5046585;28;20445;-62
2023/07/15 06:57:22;;;;;;;9.80;7.10;;;20.10;99.90;;;;;;5041078;28;20214;-60
2023/07/15 06:59:47;;;;;;;10.47;7.07;;;20.20;99.90;;;;;;5041156;28;20986;-65
2023/07/15 07:02:14;;;;;;;15.57;6.27;;;20.40;99.90;;;;;;5041938;28;20210;-59
2023/07/15 07:04:39;;;;;;;10.23;6.30;;;20.50;99.90;;;;;;5044145;28;20211;-62
2023/07/15 07:07:05;;;;;;;10.10;6.40;;;20.60;99.60;;;;;;5037554;28;21227;-60
2023/07/15 07:09:31;;;;;;;7.00;5.43;;;20.70;98.10;;;;;;5047303;28;20190;-58
2023/07/15 07:11:56;;;;;;;10.57;5.33;;;20.90;95.90;;;;;;5038322;28;20190;-57
2023/07/15 07:14:22;;;;;;;5.80;4.93;;;21.00;94.00;;;;;;5041565;28;20207;-59
2023/07/15 07:16:47;;;;;;;7.90;5.87;;;21.10;93.60;;;;;;5043863;28;20184;-58
2023/07/15 07:19:13;;;;;;;6.03;4.90;;;21.20;92.20;;;;;;5039485;28;20715;-58
2023/07/15 07:21:39;;;;;;;5.50;5.00;;;21.40;90.10;;;;;;5040282;28;20191;-58
2023/07/15 07:24:05;;;;;;;5.10;4.10;;;21.50;87.10;;;;;;5039369;28;20211;-58
2023/07/15 07:26:31;;;;;;;8.73;5.20;;;21.70;85.90;;;;;;5036621;28;20211;-59
2023/07/15 07:28:56;;;;;;;6.33;4.47;;;21.80;82.50;;;;;;5041234;28;20457;-61
2023/07/15 07:31:22;;;;;;;8.93;4.77;;;22.00;80.60;;;;;;5030587;28;20679;-60
2023/07/15 07:33:47;;;;;;;6.40;4.93;;;22.10;81.00;;;;;;5045291;28;20236;-60
2023/07/15 07:36:13;;;;;;;6.93;5.30;;;22.30;80.90;;;;;;5035631;28;20294;-59
2023/07/15 07:38:39;;;;;;;11.27;5.80;;;22.50;80.70;;;;;;5044437;28;20199;-59
2023/07/15 07:41:09;;;;;;;12.60;6.27;;;22.60;81.10;;;;;;5038683;28;20190;-60
2023/07/15 07:43:36;;;;;;;12.70;6.70;;;22.80;80.40;;;;;;5036761;28;20222;-61
2023/07/15 07:46:05;;;;;;;17.37;10.13;;;23.00;78.70;;;;;;5038580;28;20441;-59
2023/07/15 07:48:31;;;;;;;13.73;8.43;;;23.10;76.80;;;;;;5044028;28;20429;-60
2023/07/15 07:50:57;;;;;;;15.93;9.37;;;23.10;73.70;;;;;;5040225;28;20422;-60
2023/07/15 07:53:23;;;;;;;10.50;7.37;;;23.30;73.00;;;;;;5042752;28;20480;-60
2023/07/15 07:55:50;;;;;;;11.10;7.13;;;23.40;71.70;;;;;;5031542;28;20480;-60
2023/07/15 07:58:16;;;;;;;17.10;8.40;;;23.50;70.80;;;;;;5040068;28;20588;-60
2023/07/15 08:00:41;;;;;;;11.27;7.40;;;23.70;70.00;;;;;;5033520;28;20521;-60
2023/07/15 08:03:07;;;;;;;11.23;6.67;;;23.80;70.00;;;;;;5034370;28;20179;-58
2023/07/15 08:05:33;;;;;;;16.73;5.67;;;23.90;69.30;;;;;;5036482;28;20199;-60
2023/07/15 08:07:58;;;;;;;8.73;5.40;;;24.00;68.10;;;;;;5030032;28;20176;-59
2023/07/15 08:10:24;;;;;;;10.80;5.50;;;24.10;66.70;;;;;;5034684;28;20171;-60
2023/07/15 08:12:49;;;;;;;8.30;4.43;;;24.30;66.10;;;;;;5045232;28;20179;-60
2023/07/15 08:15:15;;;;;;;7.30;5.17;;;24.40;65.80;;;;;;5041722;28;20195;-60
2023/07/15 08:17:41;;;;;;;5.27;4.50;;;24.50;66.20;;;;;;5028774;28;20680;-60
2023/07/15 08:20:08;;;;;;;5.50;5.00;;;24.60;65.90;;;;;;5027988;28;20646;-59
2023/07/15 08:22:34;;;;;;;6.73;4.93;;;24.70;65.80;;;;;;5036951;28;20190;-58
2023/07/15 08:24:59;;;;;;;4.80;4.40;;;24.80;65.80;;;;;;5047104;28;20460;-60
2023/07/15 08:27:25;;;;;;;9.53;4.90;;;24.90;65.80;;;;;;5043120;28;20179;-60
2023/07/15 08:29:51;;;;;;;5.93;4.47;;;25.00;65.50;;;;;;5039209;28;20178;-61
2023/07/15 08:32:17;;;;;;;8.33;3.80;;;25.10;63.80;;;;;;5037307;28;20258;-61
2023/07/15 08:35:03;;;;;;;11.30;3.83;;;25.20;61.70;;;;;;5036123;28;20593;-60
2023/07/15 08:37:29;;;;;;;5.17;3.83;;;25.30;58.30;;;;;;5034299;28;20171;-60
2023/07/15 08:39:54;;;;;;;6.73;3.43;;;25.40;56.50;;;;;;5038076;28;20936;-60
2023/07/15 08:42:20;;;;;;;8.43;3.13;;;25.60;54.80;;;;;;5041581;28;20270;-59
2023/07/15 08:44:47;;;;;;;3.83;3.07;;;25.80;53.60;;;;;;5044993;28;20217;-60
2023/07/15 08:47:19;;;;;;;3.50;3.20;;;26.00;53.00;;;;;;5043920;28;20171;-60
2023/07/15 08:49:45;;;;;;;4.80;3.30;;;26.20;52.60;;;;;;5036531;28;20488;-60
2023/07/15 08:52:11;;;;;;;3.80;3.37;;;26.30;52.10;;;;;;5039859;28;20997;-60
2023/07/15 08:54:38;;;;;;;4.70;3.03;;;26.50;50.20;;;;;;5037050;28;20959;-60
2023/07/15 08:57:05;;;;;;;5.07;3.50;;;26.60;49.50;;;;;;5037084;28;20433;-58
2023/07/15 08:59:31;;;;;;;3.60;3.30;;;26.80;48.20;;;;;;5026365;28;21464;-60
2023/07/15 09:01:59;;;;;;;4.20;3.67;;;26.90;47.50;;;;;;5033871;28;21061;-61
2023/07/15 09:04:25;;;;;;;7.83;3.43;;;26.90;48.00;;;;;;5039028;28;21210;-61
2023/07/15 09:06:53;;;;;;;3.33;3.03;;;27.10;48.00;;;;;;5028950;28;20183;-60
2023/07/15 09:09:29;;;;;;;8.73;3.17;;;27.20;47.60;;;;;;5031833;28;20171;-58
2023/07/15 09:12:00;;;;;;;2.93;2.73;;;27.30;46.90;;;;;;5029472;28;20651;-63
2023/07/15 09:14:25;;;;;;;2.83;2.63;;;27.40;48.10;;;;;;5028113;28;20206;-63
2023/07/15 09:16:52;;;;;;;5.73;2.87;;;27.60;47.60;;;;;;5043094;28;20228;-60
2023/07/15 09:19:21;;;;;;;3.37;3.00;;;27.80;47.70;;;;;;5037056;28;20532;-63
2023/07/15 09:22:02;;;;;;;5.30;3.30;;;27.90;47.10;;;;;;5036434;28;20194;-63
2023/07/15 09:24:30;;;;;;;5.50;3.10;;;28.00;45.80;;;;;;5040174;28;20210;-63
2023/07/15 09:26:58;;;;;;;3.60;3.03;;;28.20;44.60;;;;;;5040491;28;20240;-63
2023/07/15 09:29:24;;;;;;;4.27;3.30;;;28.40;44.50;;;;;;5036642;28;20254;-62
2023/07/15 09:31:50;;;;;;;3.70;2.90;;;28.50;44.10;;;;;;5034670;28;20258;-63
2023/07/15 09:34:18;;;;;;;4.40;2.57;;;28.70;44.20;;;;;;5041201;28;20198;-63
2023/07/15 09:36:44;;;;;;;3.92;2.85;;;28.80;43.90;;;;;;5038659;28;20187;-63
2023/07/15 09:39:19;;;;;;;6.70;3.05;;;29.00;42.80;;;;;;5037142;28;20222;-62
2023/07/15 09:42:02;;;;;;;2.83;2.63;;;29.10;42.90;;;;;;5040258;28;20174;-63
2023/07/15 09:44:34;;;;;;;3.00;2.80;;;29.20;42.60;;;;;;5042535;28;20234;-63
2023/07/15 09:47:02;;;;;;;4.82;2.75;;;29.40;42.20;;;;;;5032183;28;21934;-63
2023/07/15 09:49:28;;;;;;;3.28;2.80;;;29.50;42.00;;;;;;5042171;28;20181;-63
2023/07/15 09:51:54;;;;;;;4.50;3.15;;;29.70;41.20;;;;;;5037026;28;20182;-62
2023/07/15 09:54:22;;;;;;;3.10;2.80;;;29.90;41.10;;;;;;5031408;28;20207;-63
2023/07/15 09:56:51;;;;;;;4.35;2.97;;;30.00;40.70;;;;;;5042736;28;20187;-62
2023/07/15 09:59:21;;;;;;;9.48;3.47;;;30.00;40.70;;;;;;5033724;28;20192;-63
2023/07/15 10:01:50;;;;;;;5.50;3.28;;;29.90;40.50;;;;;;5030420;28;20210;-64
2023/07/15 10:04:30;;;;;;;3.85;2.95;;;29.80;41.60;;;;;;5034968;28;20207;-64
2023/07/15 10:06:57;;;;;;;4.32;2.92;;;29.90;42.30;;;;;;5025595;28;20171;-62
2023/07/15 10:09:23;;;;;;;3.55;2.65;;;30.00;42.30;;;;;;5028718;28;20180;-63
2023/07/15 10:11:51;;;;;;;3.00;2.60;;;30.10;42.00;;;;;;5041364;28;20189;-63
2023/07/15 10:14:19;;;;;;;5.22;2.72;;;30.20;41.60;;;;;;5029705;28;20204;-61
2023/07/15 10:16:45;;;;;;;3.85;2.88;;;30.30;40.90;;;;;;5026300;28;20203;-61
2023/07/15 10:19:41;;;;;;;4.82;2.75;;;30.40;41.50;;;;;;5034639;28;20219;-63
2023/07/15 10:22:08;;;;;;;3.13;2.70;;;30.50;40.80;;;;;;5042012;28;20234;-64
2023/07/15 10:24:34;;;;;;;3.97;3.17;;;30.60;40.50;;;;;;5035741;28;20214;-63
2023/07/15 10:27:01;;;;;;;3.88;2.80;;;30.70;40.80;;;;;;5042132;28;20172;-64
2023/07/15 10:29:30;;;;;;;4.40;2.70;;;30.80;40.90;;;;;;5040099;28;20218;-63
2023/07/15 10:32:10;;;;;;;8.15;3.00;;;30.90;41.30;;;;;;5027547;28;20283;-63
2023/07/15 10:34:50;;;;;;;3.40;2.55;;;31.00;39.50;;;;;;5031790;28;20237;-62
2023/07/15 10:37:17;;;;;;;3.65;3.10;;;31.10;40.20;;;;;;5024229;28;20235;-60
2023/07/15 10:39:47;;;;;;;9.57;2.80;;;31.20;40.10;;;;;;5035205;28;20619;-58
2023/07/15 10:42:16;;;;;;;2.67;2.35;;;31.20;37.90;;;;;;5032672;28;20187;-62
2023/07/15 10:44:44;;;;;;;3.22;2.72;;;31.30;38.50;;;;;;5028753;28;20288;-62
2023/07/15 10:47:11;;;;;;;5.75;2.72;;;31.30;38.20;;;;;;5030757;28;20630;-63
2023/07/15 10:49:37;;;;;;;2.53;2.33;;;31.30;38.10;;;;;;5036007;28;20759;-61
2023/07/15 10:52:06;;;;;;;2.88;2.67;;;31.40;38.70;;;;;;5037587;28;20177;-60
2023/07/15 10:54:36;;;;;;;3.35;3.05;;;31.40;37.50;;;;;;5041787;28;20213;-61
2023/07/15 10:57:12;;;;;;;3.80;2.70;;;31.50;38.10;;;;;;5032412;28;20187;-62
2023/07/15 10:59:43;;;;;;;2.90;2.65;;;31.50;38.50;;;;;;5034770;28;20203;-63
2023/07/15 11:02:10;;;;;;;2.88;2.58;;;31.60;38.30;;;;;;5034436;28;20227;-64
2023/07/15 11:04:37;;;;;;;4.18;3.08;;;31.70;37.90;;;;;;5038897;28;20721;-62
2023/07/15 11:07:04;;;;;;;6.40;2.47;;;31.70;38.00;;;;;;5036167;28;20181;-58
2023/07/15 11:09:31;;;;;;;4.53;2.85;;;31.80;38.30;;;;;;5029721;28;20182;-59
2023/07/15 11:11:56;;;;;;;3.95;2.90;;;31.80;38.40;;;;;;5031490;28;20209;-62
2023/07/15 11:14:29;;;;;;;2.85;2.47;;;31.90;38.30;;;;;;5029196;28;20220;-62
2023/07/15 11:17:03;;;;;;;4.75;2.58;;;31.90;37.50;;;;;;5038094;28;20174;-63
2023/07/15 11:19:29;;;;;;;3.17;2.70;;;32.00;38.10;;;;;;5041193;28;20170;-63
2023/07/15 11:21:57;;;;;;;2.63;2.42;;;31.90;37.80;;;;;;5039076;28;20212;-63
2023/07/15 11:24:24;;;;;;;5.30;2.83;;;32.00;36.90;;;;;;5038573;28;20683;-63
2023/07/15 11:26:50;;;;;;;2.85;2.63;;;32.10;37.10;;;;;;5035518;28;20286;-62
2023/07/15 11:29:19;;;;;;;3.30;2.78;;;32.10;36.30;;;;;;5039016;28;20180;-63
2023/07/15 11:31:49;;;;;;;5.85;3.17;;;32.20;36.60;;;;;;5037521;28;20230;-63
2023/07/15 11:34:17;;;;;;;4.20;2.67;;;32.20;37.20;;;;;;5038139;28;20845;-64
2023/07/15 11:36:43;;;;;;;5.28;2.92;;;32.30;38.50;;;;;;5035414;28;20787;-63
2023/07/15 11:39:10;;;;;;;2.92;2.50;;;32.40;37.90;;;;;;5036983;28;20197;-62
2023/07/15 11:41:37;;;;;;;6.53;3.90;;;32.50;37.20;;;;;;5039596;28;20243;-61
2023/07/15 11:44:19;;;;;;;5.20;3.40;;;32.60;36.30;;;;;;5037536;28;20199;-62
2023/07/15 11:46:45;;;;;;;4.55;3.13;;;32.70;36.00;;;;;;5048925;28;20179;-63
2023/07/15 11:49:11;;;;;;;4.13;3.70;;;32.70;35.40;;;;;;5040726;28;20542;-62
2023/07/15 11:51:41;;;;;;;3.17;2.50;;;32.70;35.30;;;;;;5038105;28;20183;-62
2023/07/15 11:54:11;;;;;;;6.30;3.00;;;32.80;34.60;;;;;;5034299;28;20749;-62
2023/07/15 11:56:42;;;;;;;6.80;3.63;;;32.70;34.90;;;;;;5048880;28;20192;-61
2023/07/15 11:59:09;;;;;;;2.90;2.60;;;32.80;35.20;;;;;;5036229;28;20185;-62
2023/07/15 12:01:40;;;;;;;5.45;2.92;;;32.90;35.70;;;;;;5037501;28;20189;-61
2023/07/15 12:04:13;;;;;;;5.45;3.15;;;33.00;36.10;;;;;;5036497;28;20216;-59
2023/07/15 12:06:54;;;;;;;5.63;3.33;;;33.00;36.40;;;;;;5037253;28;20719;-63
2023/07/15 12:09:21;;;;;;;2.80;2.50;;;33.10;37.50;;;;;;5031500;28;20790;-62
2023/07/15 12:11:47;;;;;;;9.77;2.60;;;33.20;35.00;;;;;;5039833;28;20182;-60
2023/07/15 12:14:15;;;;;;;2.55;2.35;;;33.20;35.50;;;;;;5036113;28;20314;-61
2023/07/15 12:16:42;;;;;;;3.92;2.53;;;33.30;37.10;;;;;;5036253;28;22107;-62
2023/07/15 12:19:12;;;;;;;4.63;3.05;;;33.30;36.60;;;;;;5038174;28;20175;-61
2023/07/15 12:21:38;;;;;;;3.40;3.10;;;33.30;35.80;;;;;;5037699;28;20187;-62
2023/07/15 12:24:04;;;;;;;2.70;2.50;;;33.40;35.60;;;;;;5036748;28;20633;-61
2023/07/15 12:26:29;;;;;;;3.20;2.60;;;33.40;34.90;;;;;;5036527;28;20180;-62
2023/07/15 12:28:56;;;;;;;4.82;3.05;;;33.40;36.10;;;;;;5033198;28;20664;-62
2023/07/15 12:31:22;;;;;;;3.05;2.53;;;33.50;37.30;;;;;;5035547;28;20168;-62
2023/07/15 12:33:47;;;;;;;2.60;2.40;;;33.50;37.10;;;;;;5034699;28;20229;-61
2023/07/15 12:36:15;;;;;;;4.35;2.92;;;33.60;36.70;;;;;;5037986;28;20690;-61
2023/07/15 12:38:41;;;;;;;4.43;3.20;;;33.70;36.40;;;;;;5037549;28;20773;-62
2023/07/15 12:41:08;;;;;;;5.68;3.90;;;33.70;36.10;;;;;;5039088;28;20171;-61
2023/07/15 12:43:34;;;;;;;8.02;3.08;;;33.70;36.20;;;;;;5031583;28;20210;-61
2023/07/15 12:46:01;;;;;;;4.07;3.55;;;33.80;36.10;;;;;;5037005;28;20277;-62